createdAt,value
2024-04-17T00:03:28.142Z,6.28
2024-04-17T00:08:35.502Z,6.16
2024-04-17T00:13:40.326Z,5.68
2024-04-17T00:18:45.083Z,6.24
2024-04-17T00:23:52.520Z,6.04
2024-04-17T00:28:57.761Z,5.58
2024-04-17T00:34:02.556Z,5.52
2024-04-17T00:39:09.817Z,5.25
2024-04-17T00:44:14.460Z,5.28
2024-04-17T00:49:19.813Z,5.10
2024-04-17T00:54:27.382Z,4.93
2024-04-17T00:59:32.483Z,4.76
2024-04-17T01:04:37.291Z,4.92
2024-04-17T01:09:44.602Z,4.93
2024-04-17T01:14:49.281Z,4.77
2024-04-17T01:19:54.011Z,4.57
2024-04-17T01:25:01.358Z,4.62
2024-04-17T01:30:06.302Z,4.41
2024-04-17T01:35:11.151Z,4.52
2024-04-17T01:40:18.603Z,4.48
2024-04-17T01:45:23.281Z,4.22
2024-04-17T01:50:31.997Z,4.19
2024-04-17T01:55:39.708Z,4.25
2024-04-17T02:00:44.483Z,4.34
2024-04-17T02:05:49.177Z,4.50
2024-04-17T02:10:57.172Z,4.35
2024-04-17T02:16:04.217Z,4.52
2024-04-17T02:21:08.984Z,4.74
2024-04-17T02:26:16.409Z,4.09
2024-04-17T02:31:21.136Z,4.61
2024-04-17T02:36:25.791Z,4.84
2024-04-17T02:41:33.081Z,5.19
2024-04-17T02:46:37.766Z,4.76
2024-04-17T02:51:42.502Z,4.59
2024-04-17T02:56:49.867Z,4.90
2024-04-17T03:01:54.602Z,4.60
2024-04-17T03:06:59.290Z,5.18
2024-04-17T03:12:06.925Z,5.29
2024-04-17T03:17:11.693Z,4.44
2024-04-17T03:22:16.481Z,5.02
2024-04-17T03:27:23.939Z,5.19
2024-04-17T03:32:28.665Z,5.23
2024-04-17T03:37:33.484Z,5.27
2024-04-17T03:42:41.057Z,5.34
2024-04-17T03:47:45.778Z,5.32
2024-04-17T03:52:50.602Z,5.25
2024-04-17T03:57:58.659Z,5.27
2024-04-17T04:03:03.570Z,5.07
2024-04-17T04:08:08.961Z,5.18
2024-04-17T04:13:16.349Z,5.01
2024-04-17T04:18:21.148Z,4.87
2024-04-17T04:23:25.893Z,4.59
2024-04-17T04:28:33.232Z,4.90
2024-04-17T04:33:37.936Z,4.85
2024-04-17T04:38:43.360Z,4.88
2024-04-17T04:43:50.686Z,4.72
2024-04-17T04:48:55.450Z,5.11
2024-04-17T04:54:00.196Z,5.07
2024-04-17T04:59:07.633Z,5.14
2024-04-17T05:04:12.404Z,4.78
2024-04-17T05:09:17.135Z,4.42
2024-04-17T05:14:24.434Z,4.01
2024-04-17T05:19:29.134Z,4.36
2024-04-17T05:24:33.996Z,4.90
2024-04-17T05:29:43.827Z,4.98
2024-04-17T05:34:49.787Z,3.96
2024-04-17T05:39:54.496Z,4.16
2024-04-17T05:45:01.890Z,4.75
2024-04-17T05:50:09.133Z,5.30
2024-04-17T05:55:14.197Z,5.49
2024-04-17T06:00:22.297Z,4.73
2024-04-17T06:05:26.976Z,5.58
2024-04-17T06:10:31.680Z,5.54
2024-04-17T06:15:39.128Z,5.28
2024-04-17T06:20:44.759Z,4.32
2024-04-17T06:25:50.177Z,4.74
2024-04-17T06:30:57.561Z,5.25
2024-04-17T06:36:02.266Z,5.59
2024-04-17T06:41:08.937Z,7.89
2024-04-17T06:46:17.866Z,8.12
2024-04-17T06:51:22.612Z,8.47
2024-04-17T06:56:27.973Z,8.37
2024-04-17T07:01:35.547Z,8.32
2024-04-17T07:06:41.842Z,6.99
2024-04-17T07:11:46.650Z,6.53
2024-04-17T07:16:54.063Z,6.83
2024-04-17T07:21:58.769Z,8.64
2024-04-17T07:27:03.788Z,6.90
2024-04-17T07:32:11.567Z,7.32
2024-04-17T07:37:16.804Z,8.12
2024-04-17T07:42:21.581Z,7.72
2024-04-17T07:47:29.385Z,7.83
2024-04-17T07:52:34.179Z,7.26
2024-04-17T07:57:38.853Z,7.22
2024-04-17T08:02:48.115Z,6.16
2024-04-17T08:07:53.262Z,6.98
2024-04-17T08:13:09.149Z,7.37
2024-04-17T08:18:16.495Z,7.81
2024-04-17T08:23:21.214Z,8.21
2024-04-17T08:28:26.101Z,7.73
2024-04-17T08:33:33.697Z,8.37
2024-04-17T08:38:38.422Z,7.27
2024-04-17T08:43:46.929Z,7.88
2024-04-17T08:48:55.621Z,9.13
2024-04-17T08:54:04.727Z,9.72
2024-04-17T08:59:10.674Z,10.19
2024-04-17T09:04:20.846Z,8.34
2024-04-17T09:09:27.372Z,9.08
2024-04-17T09:14:35.618Z,9.85
2024-04-17T09:19:45.724Z,8.86
2024-04-17T09:24:50.407Z,8.82
2024-04-17T09:29:56.109Z,8.41
2024-04-17T09:35:03.710Z,8.19
2024-04-17T09:40:09.837Z,8.32
2024-04-17T09:45:18.342Z,8.09
2024-04-17T09:50:29.799Z,9.57
2024-04-17T09:55:35.988Z,9.02
2024-04-17T10:00:42.548Z,9.41
2024-04-17T10:05:49.917Z,9.32
2024-04-17T10:10:55.235Z,9.30
2024-04-17T10:15:59.975Z,8.58
2024-04-17T10:21:07.366Z,9.74
2024-04-17T10:26:15.005Z,10.96
2024-04-17T10:31:20.510Z,12.37
2024-04-17T10:36:27.778Z,13.35
2024-04-17T10:41:33.340Z,11.81
2024-04-17T10:46:38.089Z,10.05
2024-04-17T10:51:46.089Z,9.37
2024-04-17T10:56:52.149Z,9.38
2024-04-17T11:01:57.209Z,10.46
2024-04-17T11:07:04.628Z,9.21
2024-04-17T11:12:16.710Z,11.33
2024-04-17T11:17:21.640Z,11.37
2024-04-17T11:22:29.095Z,10.06
2024-04-17T11:27:34.219Z,11.52
2024-04-17T11:32:39.065Z,10.46
2024-04-17T11:37:49.265Z,9.78
2024-04-17T11:42:53.952Z,11.94
2024-04-17T11:47:59.626Z,12.09
2024-04-17T11:53:07.246Z,12.55
2024-04-17T11:58:12.057Z,12.80
2024-04-17T12:03:16.881Z,12.09
2024-04-17T12:08:24.428Z,12.58
2024-04-17T12:13:29.079Z,10.77
2024-04-17T12:18:33.784Z,10.18
2024-04-17T12:23:43.157Z,11.16
2024-04-17T12:28:47.882Z,9.92
2024-04-17T12:33:52.890Z,9.54
2024-04-17T12:39:00.438Z,9.64
2024-04-17T12:44:05.429Z,11.15
2024-04-17T12:49:10.193Z,11.54
2024-04-17T12:54:20.378Z,10.74
2024-04-17T12:59:25.740Z,11.37
2024-04-17T13:04:30.514Z,10.29
2024-04-17T13:09:37.858Z,10.12
2024-04-17T13:14:42.543Z,11.58
2024-04-17T13:19:48.411Z,11.13
2024-04-17T13:24:55.994Z,9.88
2024-04-17T13:30:00.779Z,10.80
2024-04-17T13:35:05.783Z,11.04
2024-04-17T13:40:14.032Z,10.98
2024-04-17T13:45:18.844Z,9.60
2024-04-17T13:50:23.617Z,8.44
2024-04-17T13:55:35.532Z,8.64
2024-04-17T14:00:40.864Z,8.58
2024-04-17T14:05:45.560Z,8.61
2024-04-17T14:10:52.968Z,7.99
2024-04-17T14:15:57.916Z,8.68
2024-04-17T14:21:02.628Z,8.82
2024-04-17T14:26:10.998Z,9.65
2024-04-17T14:31:15.771Z,9.84
2024-04-17T14:36:22.436Z,10.19
2024-04-17T14:41:31.147Z,10.66
2024-04-17T14:46:35.901Z,11.15
2024-04-17T14:51:40.595Z,10.73
2024-04-17T14:56:47.943Z,10.71
2024-04-17T15:01:53.178Z,11.35
2024-04-17T15:06:58.607Z,11.37
2024-04-17T15:12:06.280Z,11.54
2024-04-17T15:17:10.978Z,11.89
2024-04-17T15:22:15.665Z,11.76
2024-04-17T15:27:23.051Z,11.68
2024-04-17T15:32:27.886Z,11.55
2024-04-17T15:37:33.197Z,11.53
2024-04-17T15:42:40.696Z,11.62
2024-04-17T15:47:45.495Z,11.57
2024-04-17T15:52:50.234Z,11.36
2024-04-17T15:57:57.526Z,11.04
2024-04-17T16:03:02.525Z,10.95
2024-04-17T16:08:07.923Z,10.83
2024-04-17T16:13:15.821Z,10.82
2024-04-17T16:18:20.875Z,10.86
2024-04-17T16:23:27.526Z,10.85
2024-04-17T16:28:34.915Z,10.87
2024-04-17T16:33:39.665Z,10.97
2024-04-17T16:38:44.529Z,10.90
2024-04-17T16:43:51.923Z,10.67
2024-04-17T16:48:57.807Z,10.68
2024-04-17T16:54:06.110Z,10.74
2024-04-17T16:59:14.751Z,10.49
2024-04-17T17:04:19.611Z,10.35
2024-04-17T17:09:24.379Z,10.06
2024-04-17T17:14:31.687Z,9.10
2024-04-17T17:19:36.416Z,9.70
2024-04-17T17:24:41.228Z,9.15
2024-04-17T17:29:48.514Z,9.50
2024-04-17T17:34:53.412Z,9.59
2024-04-17T17:39:58.256Z,9.36
2024-04-17T17:45:07.049Z,9.04
2024-04-17T17:50:11.897Z,9.28
2024-04-17T17:55:17.862Z,8.96
2024-04-17T18:00:25.298Z,8.99
2024-04-17T18:05:29.959Z,8.42
2024-04-17T18:10:36.039Z,8.53
2024-04-17T18:15:43.640Z,8.50
2024-04-17T18:20:48.360Z,8.29
2024-04-17T18:25:53.010Z,8.38
2024-04-17T18:31:05.480Z,8.40
2024-04-17T18:36:10.961Z,8.22
2024-04-17T18:41:17.049Z,8.33
2024-04-17T18:46:25.928Z,8.50
2024-04-17T18:51:31.508Z,8.48
2024-04-17T18:56:36.599Z,8.55
2024-04-17T19:01:43.909Z,8.44
2024-04-17T19:06:48.718Z,8.27
2024-04-17T19:11:53.490Z,7.89
2024-04-17T19:17:01.610Z,8.02
2024-04-17T19:22:06.877Z,7.81
2024-04-17T19:27:11.675Z,7.65
2024-04-17T19:32:19.064Z,7.79
2024-04-17T19:37:23.881Z,7.69
2024-04-17T19:42:32.211Z,7.57
2024-04-17T19:47:44.145Z,7.65
2024-04-17T19:52:48.861Z,7.63
2024-04-17T19:57:53.545Z,7.72
2024-04-17T20:03:00.946Z,7.53
2024-04-17T20:08:06.364Z,7.51
2024-04-17T20:13:12.197Z,7.69
2024-04-17T20:18:21.025Z,7.71
2024-04-17T20:23:25.815Z,7.65
2024-04-17T20:28:30.552Z,7.63
2024-04-17T20:33:40.495Z,7.56
2024-04-17T20:38:45.779Z,7.63
2024-04-17T20:43:50.468Z,7.42
2024-04-17T20:48:57.864Z,7.43
2024-04-17T20:54:02.657Z,7.47
2024-04-17T20:59:09.450Z,7.46
2024-04-17T21:04:16.826Z,7.13
2024-04-17T21:09:21.683Z,7.33
2024-04-17T21:14:26.419Z,7.20
2024-04-17T21:19:33.948Z,7.12
2024-04-17T21:24:38.765Z,6.95
2024-04-17T21:29:43.562Z,6.78
2024-04-17T21:34:50.837Z,6.87
2024-04-17T21:39:57.304Z,6.84
2024-04-17T21:45:03.995Z,6.81
2024-04-17T21:50:11.542Z,6.56
2024-04-17T21:55:16.246Z,6.68
2024-04-17T22:00:20.965Z,6.47
2024-04-17T22:05:28.718Z,6.42
2024-04-17T22:10:33.394Z,6.44
2024-04-17T22:15:38.064Z,6.24
2024-04-17T22:20:45.438Z,6.18
2024-04-17T22:25:50.781Z,6.10
2024-04-17T22:30:55.558Z,5.80
2024-04-17T22:36:02.882Z,5.76
2024-04-17T22:41:07.855Z,5.83
2024-04-17T22:46:12.578Z,5.71
2024-04-17T22:51:19.878Z,5.56
2024-04-17T22:56:24.561Z,5.68
2024-04-17T23:01:29.251Z,5.30
2024-04-17T23:06:36.861Z,5.47
2024-04-17T23:11:41.685Z,5.25
2024-04-17T23:16:46.458Z,5.39
2024-04-17T23:21:53.794Z,5.33
2024-04-17T23:26:58.478Z,5.24
2024-04-17T23:32:03.144Z,5.12
2024-04-17T23:37:10.425Z,5.14
2024-04-17T23:42:15.125Z,5.00
2024-04-17T23:47:19.866Z,4.98
2024-04-17T23:52:27.203Z,4.88
2024-04-17T23:57:31.979Z,4.62
